DW5057 Cape May Point NJ US current weather conditions

sailwx.info

Wind from 180 at 6 knots gusting 13

Air temperature 11.1° C
Dewpoint 9.7° C

Last reported at 2019-Dec-09 21:55 UTC.
Time now 2019-Dec-09 23:05 UTC

Location: N 38°56' W 074°58'.
View on Google Maps.

See reports from other nearby stations

  
Tides and Currents Weather Stations Pressure Air Temp Water Temp Dewpoint Dewpoint Depression Visibility Wind Speed Wind Dir Waves Ship Positions
date/time (UTC)wind fromknots sea level pressurealtimeterstation pressurevisibilityair tempwater tempwave heightnotes
2019-Dec-09 21:55 180 6 gusting 13 11.1
2019-Dec-09 21:45 180 4 gusting 10 11.1
2019-Dec-09 21:35 180 4 gusting 11 10.6
2019-Dec-09 21:25 180 5 gusting 10 10.0
2019-Dec-09 21:15 158 5 gusting 10 10.0
2019-Dec-09 21:05 158 4 gusting 9 10.0
2019-Dec-09 20:55 135 4 gusting 9 10.0
2019-Dec-09 20:45 135 3 gusting 6 10.0
2019-Dec-09 20:35 135 2 gusting 5 10.0
2019-Dec-09 20:25 135 3 gusting 6 10.0
2019-Dec-09 20:15 135 2 gusting 4 10.0
2019-Dec-09 20:05 113 1 gusting 4 10.0
2019-Dec-09 19:55 090 0 gusting 2 10.6
2019-Dec-09 19:45 10.6
2019-Dec-09 19:35 10.6
2019-Dec-09 19:25 045 0 gusting 1 10.6
2019-Dec-09 19:15 338 0 gusting 2 10.0
2019-Dec-09 19:05 338 1 gusting 2 10.0
2019-Dec-09 18:55 338 0 gusting 2 10.0
2019-Dec-09 18:45 315 2 gusting 4 10.0
2019-Dec-09 18:35 315 1 gusting 4 10.0
2019-Dec-09 18:25 315 1 gusting 3 10.6
2019-Dec-09 18:15 315 1 gusting 3 10.6
2019-Dec-09 18:05 315 1 gusting 2 11.1
2019-Dec-09 17:55 315 1 gusting 2 11.1
2019-Dec-09 17:45 225 0 gusting 2 10.6
2019-Dec-09 17:38 225 0 gusting 2 10.6
2019-Dec-09 17:25 270 1 gusting 2 10.6
2019-Dec-09 17:15 270 1 gusting 2 10.6
2019-Dec-09 17:05 270 2 gusting 3 10.6
2019-Dec-09 16:55 270 2 gusting 5 10.6
2019-Dec-09 16:45 248 1 gusting 3 10.0
2019-Dec-09 16:35 225 2 gusting 4 10.0
2019-Dec-09 16:25 225 2 gusting 5 10.6
2019-Dec-09 16:15 225 1 gusting 4 10.6
2019-Dec-09 16:05 203 1 gusting 5 10.6
2019-Dec-09 15:55 225 1 gusting 3 10.6
2019-Dec-09 15:45 225 1 gusting 5 10.6
2019-Dec-09 15:35 225 3 gusting 6 10.6
2019-Dec-09 15:25 225 1 gusting 3 11.1
2019-Dec-09 15:15 225 0 gusting 3 10.6
2019-Dec-09 15:05 225 1 gusting 3 10.6
2019-Dec-09 14:55 225 2 gusting 5 10.6
2019-Dec-09 14:45 225 3 gusting 11 10.6
2019-Dec-09 14:35 248 4 gusting 7 10.6
2019-Dec-09 14:25 248 5 gusting 7 10.6
2019-Dec-09 14:15 248 3 gusting 6 10.0
2019-Dec-09 14:05 270 3 gusting 6 9.4
2019-Dec-09 13:55 248 3 gusting 6 10.0
2019-Dec-09 13:45 225 4 gusting 7 10.6
2019-Dec-09 13:35 203 5 gusting 7 11.1
2019-Dec-09 13:25 203 6 gusting 10 11.1
2019-Dec-09 13:15 180 6 gusting 10 11.1
2019-Dec-09 13:05 180 4 gusting 8 11.1
2019-Dec-09 12:55 180 5 gusting 10 11.1
2019-Dec-09 12:45 158 5 gusting 11 11.1
2019-Dec-09 12:35 135 5 gusting 10 11.1
2019-Dec-09 12:25 158 3 gusting 6 11.1
2019-Dec-09 12:15 225 2 gusting 4 10.6
2019-Dec-09 12:05 225 2 gusting 6 10.6
2019-Dec-09 11:55 225 1 gusting 3 10.0
2019-Dec-09 11:45 225 0 gusting 2 10.0
2019-Dec-09 11:35 225 1 gusting 2 10.0
2019-Dec-09 11:25 225 1 gusting 6 10.0
2019-Dec-09 11:15 203 4 gusting 9 10.6
2019-Dec-09 11:05 203 4 gusting 8 11.1
2019-Dec-09 10:55 158 4 gusting 9 11.7
2019-Dec-09 10:45 135 6 gusting 13 11.7
2019-Dec-09 10:35 135 6 gusting 12 11.7
2019-Dec-09 10:25 113 4 gusting 8 11.7
2019-Dec-09 10:15 113 1 gusting 5 11.1
2019-Dec-09 10:05 135 1 gusting 3 11.1
2019-Dec-09 09:55 090 3 gusting 6 11.1
2019-Dec-09 09:45 090 2 gusting 5 11.1
2019-Dec-09 09:35 068 1 gusting 5 11.1
2019-Dec-09 09:25 090 2 gusting 6 10.6
2019-Dec-09 09:15 090 1 gusting 3 10.6
2019-Dec-09 09:05 090 1 gusting 6 10.6
2019-Dec-09 08:55 113 2 gusting 6 10.0
2019-Dec-09 08:45 090 1 gusting 5 10.0
2019-Dec-09 08:35 090 1 gusting 2 10.0
2019-Dec-09 08:25 113 1 gusting 3 10.0
2019-Dec-09 08:15 113 1 gusting 3 9.4
2019-Dec-09 08:05 090 0 gusting 1 9.4
2019-Dec-09 07:55 090 0 gusting 1 8.9
2019-Dec-09 07:45 8.9
2019-Dec-09 07:35 8.9
2019-Dec-09 07:25 090 1 gusting 2 8.9
2019-Dec-09 07:15 090 0 gusting 1 8.9
2019-Dec-09 07:05 090 0 gusting 1 8.9
2019-Dec-09 06:55 090 0 gusting 1 8.9
2019-Dec-09 06:45 090 0 gusting 1 8.9
2019-Dec-09 06:35 090 0 gusting 1 8.9
2019-Dec-09 06:25 090 0 gusting 1 8.3
2019-Dec-09 06:15 8.3
2019-Dec-09 06:05 8.3
2019-Dec-09 05:55 8.9
2019-Dec-09 05:45 8.9
2019-Dec-09 05:35 8.9
2019-Dec-09 05:25 8.9
2019-Dec-09 05:15 8.9
2019-Dec-09 05:05 8.9
2019-Dec-09 04:55 090 0 gusting 1 8.9
2019-Dec-09 04:45 090 0 gusting 1 8.9
2019-Dec-09 04:35 090 0 gusting 2 8.9
2019-Dec-09 04:25 090 0 gusting 1 8.9
2019-Dec-09 04:15 113 1 gusting 2 8.9
2019-Dec-09 04:05 113 0 gusting 2 8.9
2019-Dec-09 03:55 135 0 gusting 1 8.9
2019-Dec-09 03:45 8.9
2019-Dec-09 03:35 8.9
2019-Dec-09 03:25 8.9
2019-Dec-09 03:15 8.9
2019-Dec-09 03:05 8.9
2019-Dec-09 02:55 135 0 gusting 1 8.9
2019-Dec-09 02:45 8.9
2019-Dec-09 02:35 8.9
2019-Dec-09 02:25 135 0 gusting 2 8.9
2019-Dec-09 02:15 158 0 gusting 3 8.9
2019-Dec-09 02:05 135 1 gusting 4 8.9
2019-Dec-09 01:55 135 2 gusting 6 8.9
2019-Dec-09 01:45 135 3 gusting 6 8.9
2019-Dec-09 01:35 158 3 gusting 6 8.9
2019-Dec-09 01:25 135 3 gusting 6 8.9
2019-Dec-09 01:15 135 3 gusting 8 8.3
2019-Dec-09 01:05 135 3 gusting 7 8.3
2019-Dec-09 00:55 135 3 gusting 7 8.3
2019-Dec-09 00:45 158 4 gusting 9 8.3
2019-Dec-09 00:35 135 3 gusting 7 8.3
2019-Dec-09 00:25 158 4 gusting 7 8.3
2019-Dec-09 00:15 158 3 gusting 9 8.3
2019-Dec-09 00:05 135 3 gusting 7 8.3
2019-Dec-08 23:55 135 3 gusting 7 8.3
2019-Dec-08 23:45 135 4 gusting 8 8.3
2019-Dec-08 23:35 135 4 gusting 8 8.3
2019-Dec-08 23:25 135 3 gusting 7 8.3
2019-Dec-08 23:15 135 5 gusting 10 8.3
2019-Dec-08 23:05 135 4 gusting 10 8.3
2019-Dec-08 22:55 158 4 gusting 8 8.3
2019-Dec-08 22:45 135 4 gusting 10 8.3
2019-Dec-08 22:35 158 4 gusting 11 7.8
2019-Dec-08 22:25 158 4 gusting 10 7.8
2019-Dec-08 22:15 158 3 gusting 10 7.8
2019-Dec-08 22:05 158 3 gusting 9 7.8
2019-Dec-08 21:55 158 3 gusting 6 7.8
2019-Dec-08 21:45 158 4 gusting 9 7.8
2019-Dec-08 21:35 158 3 gusting 8 7.8
2019-Dec-08 21:25 158 3 gusting 7 7.8
2019-Dec-08 21:15 180 4 gusting 9 7.8
2019-Dec-08 21:05 180 4 gusting 8 7.8
2019-Dec-08 20:55 158 4 gusting 9 7.8
2019-Dec-08 20:45 180 6 gusting 10 7.8
2019-Dec-08 20:35 180 4 gusting 9 7.8
2019-Dec-08 20:25 158 4 gusting 10 7.8
2019-Dec-08 20:15 158 2 gusting 7 8.3
2019-Dec-08 20:05 158 2 gusting 6 8.3
2019-Dec-08 19:55 158 3 gusting 7 8.3
2019-Dec-08 19:45 135 3 gusting 6 8.3
2019-Dec-08 19:35 158 3 gusting 7 8.3
2019-Dec-08 19:25 180 2 gusting 7 8.3
2019-Dec-08 19:15 135 2 gusting 6 8.3
2019-Dec-08 19:05 180 2 gusting 6 8.3
2019-Dec-08 18:55 180 2 gusting 7 8.3
2019-Dec-08 18:45 158 3 gusting 6 8.3
2019-Dec-08 18:35 158 2 gusting 6 8.3
2019-Dec-08 18:25 158 4 gusting 8 7.8
2019-Dec-08 18:15 158 2 gusting 7 8.3
2019-Dec-08 18:05 135 3 gusting 8 7.8
2019-Dec-08 17:55 135 4 gusting 9 7.2
2019-Dec-08 17:45 135 4 gusting 7 7.2
2019-Dec-08 17:35 135 5 gusting 9 7.2
2019-Dec-08 17:25 158 4 gusting 8 7.2
2019-Dec-08 17:15 158 4 gusting 10 7.2
2019-Dec-08 17:05 135 6 gusting 10 7.2
2019-Dec-08 16:55 135 5 gusting 9 7.2
2019-Dec-08 16:45 135 5 gusting 8 6.7
2019-Dec-08 16:35 135 4 gusting 9 6.7
2019-Dec-08 16:25 135 5 gusting 10 6.7
2019-Dec-08 16:15 113 4 gusting 8 6.7
2019-Dec-08 16:05 113 5 gusting 9 6.7
2019-Dec-08 15:55 135 5 gusting 11 6.7
2019-Dec-08 15:45 113 4 gusting 9 6.1
2019-Dec-08 15:35 113 5 gusting 9 6.1
2019-Dec-08 15:25 113 4 gusting 9 6.1
2019-Dec-08 15:15 113 5 gusting 10 6.1
2019-Dec-08 15:05 113 5 gusting 8 6.1
2019-Dec-08 14:55 135 3 gusting 8 6.1
2019-Dec-08 14:45 113 4 gusting 8 6.1
2019-Dec-08 14:35 113 3 gusting 8 5.6
2019-Dec-08 14:25 113 5 gusting 11 5.0
2019-Dec-08 14:15 068 2 gusting 6 4.4
2019-Dec-08 14:05 068 1 gusting 4 3.9
2019-Dec-08 13:55 090 1 gusting 4 3.3
2019-Dec-08 13:45 068 2 gusting 5 2.8
2019-Dec-08 13:35 068 2 gusting 3 2.2
2019-Dec-08 13:25 045 2 gusting 4 1.7
2019-Dec-08 13:15 068 2 gusting 6 1.1
2019-Dec-08 13:05 068 2 gusting 3 0.6
2019-Dec-08 12:55 068 1 gusting 3 0.6
2019-Dec-08 12:45 068 1 gusting 3 -0.0
2019-Dec-08 12:35 068 2 gusting 4 -0.0
2019-Dec-08 12:25 068 3 gusting 6 -0.0
2019-Dec-08 12:15 068 2 gusting 7 -0.6
2019-Dec-08 12:05 068 2 gusting 5 -0.6
2019-Dec-08 11:55 068 2 gusting 4 -0.6
2019-Dec-08 11:45 045 2 gusting 7 -0.6
2019-Dec-08 11:35 068 2 gusting 4 -0.6
2019-Dec-08 11:25 068 1 gusting 3 -0.6
2019-Dec-08 11:15 068 1 gusting 3 -0.6
2019-Dec-08 11:05 045 1 gusting 2 -0.6
2019-Dec-08 10:55 045 1 gusting 3 -0.6
2019-Dec-08 10:45 068 2 gusting 4 -0.6
2019-Dec-08 10:35 045 2 gusting 3 -0.6
2019-Dec-08 10:25 045 1 gusting 3 -0.6
2019-Dec-08 10:15 045 1 gusting 4 -0.6
2019-Dec-08 10:05 045 1 gusting 3 -0.6
2019-Dec-08 09:55 045 2 gusting 3 -0.6
2019-Dec-08 09:45 068 2 gusting 5 -0.6
2019-Dec-08 09:35 068 2 gusting 4 -0.6
2019-Dec-08 09:25 068 2 gusting 3 -0.0
2019-Dec-08 09:15 045 2 gusting 4 -0.0
2019-Dec-08 09:05 045 1 gusting 3 -0.0
2019-Dec-08 08:55 045 1 gusting 3 -0.0
2019-Dec-08 08:45 045 1 gusting 3 -0.0
2019-Dec-08 08:35 045 2 gusting 4 -0.0
2019-Dec-08 08:25 045 2 gusting 3 -0.0
2019-Dec-08 08:15 045 2 gusting 3 -0.0
2019-Dec-08 08:05 045 2 gusting 3 -0.0
2019-Dec-08 07:55 045 2 gusting 3 -0.0
2019-Dec-08 07:45 045 2 gusting 3 -0.0
2019-Dec-08 07:35 045 2 gusting 3 -0.0
2019-Dec-08 07:25 045 2 gusting 4 -0.0
2019-Dec-08 07:15 068 2 gusting 3 -0.0
2019-Dec-08 07:05 068 2 gusting 4 -0.0
2019-Dec-08 06:55 045 2 gusting 4 -0.0
2019-Dec-08 06:45 068 2 gusting 4 -0.0
2019-Dec-08 06:35 068 2 gusting 4 -0.0
2019-Dec-08 06:25 045 2 gusting 3 -0.0
2019-Dec-08 06:15 045 2 gusting 4 -0.0
2019-Dec-08 06:05 045 2 gusting 3 -0.0
2019-Dec-08 05:55 068 2 gusting 4 -0.0
2019-Dec-08 05:45 068 2 gusting 7 -0.0
2019-Dec-08 05:35 068 3 gusting 6 -0.0
2019-Dec-08 05:25 068 3 gusting 6 -0.0
2019-Dec-08 05:15 068 2 gusting 4 -0.0
2019-Dec-08 05:05 068 3 gusting 6 0.6
2019-Dec-08 04:55 068 2 gusting 4 0.6
2019-Dec-08 04:45 068 2 gusting 4 0.6
2019-Dec-08 04:35 068 2 gusting 3 0.6
2019-Dec-08 04:25 068 0 gusting 2 0.6
2019-Dec-08 04:15 068 0 gusting 1 0.6
2019-Dec-08 04:05 045 0 gusting 2 0.6
2019-Dec-08 03:55 0.6
2019-Dec-08 03:45 045 0 gusting 1 0.6
2019-Dec-08 03:35 0.6
2019-Dec-08 03:25 045 0 gusting 1 -0.0
2019-Dec-08 03:15 -0.0
2019-Dec-08 03:05 045 0 gusting 1 -0.0
2019-Dec-08 02:55 0.6
2019-Dec-08 02:45 045 0 gusting 1 0.6
2019-Dec-08 02:35 045 0 gusting 0 0.6
2019-Dec-08 02:25 1.1
2019-Dec-08 02:15 1.1
2019-Dec-08 02:05 045 0 gusting 0 1.1
2019-Dec-08 01:55 045 0 gusting 1 1.7
2019-Dec-08 01:45 045 0 gusting 1 1.7
2019-Dec-08 01:35 023 0 gusting 1 1.7
2019-Dec-08 01:25 1.7
2019-Dec-08 01:15 023 0 gusting 1 1.7
2019-Dec-08 01:05 023 0 gusting 1 2.2
2019-Dec-08 00:55 023 0 gusting 1 2.2
2019-Dec-08 00:45 2.8
2019-Dec-08 00:35 023 0 gusting 1 3.3
2019-Dec-08 00:25 3.3
2019-Dec-08 00:15 3.3
2019-Dec-08 00:05 023 2 gusting 7 3.3
2019-Dec-07 23:55 338 4 gusting 7 3.9
2019-Dec-07 23:45 3.3
2019-Dec-07 23:35 3.3
2019-Dec-07 23:25 3.9
2019-Dec-07 23:15 338 5 gusting 9 3.9
2019-Dec-07 23:05 3.9